sensor_id;sensor_type;location;lat;lon;timestamp;temperature;humidity
5280;DHT22;2663;53.588;10.010;2022-12-18T00:01:24;-1.00;99.90
5280;DHT22;2663;53.588;10.010;2022-12-18T00:03:52;-1.00;99.90
5280;DHT22;2663;53.588;10.010;2022-12-18T00:06:20;-1.00;99.90
5280;DHT22;2663;53.588;10.010;2022-12-18T00:08:47;-1.10;99.90
5280;DHT22;2663;53.588;10.010;2022-12-18T00:11:17;-1.10;99.90
5280;DHT22;2663;53.588;10.010;2022-12-18T00:13:44;-0.90;99.90
5280;DHT22;2663;53.588;10.010;2022-12-18T00:16:14;-1.00;99.90
5280;DHT22;2663;53.588;10.010;2022-12-18T00:18:42;-1.20;99.90
5280;DHT22;2663;53.588;10.010;2022-12-18T00:21:10;-1.20;99.90
5280;DHT22;2663;53.588;10.010;2022-12-18T00:23:38;-1.20;99.90
5280;DHT22;2663;53.588;10.010;2022-12-18T00:26:10;-1.10;99.90
5280;DHT22;2663;53.588;10.010;2022-12-18T00:28:37;-0.90;99.90
5280;DHT22;2663;53.588;10.010;2022-12-18T00:31:07;-0.90;99.90
5280;DHT22;2663;53.588;10.010;2022-12-18T00:33:34;-0.90;99.90
5280;DHT22;2663;53.588;10.010;2022-12-18T00:38:30;-1.20;99.90
5280;DHT22;2663;53.588;10.010;2022-12-18T00:40:57;-1.00;99.90
5280;DHT22;2663;53.588;10.010;2022-12-18T00:43:23;-0.90;99.90
5280;DHT22;2663;53.588;10.010;2022-12-18T00:45:50;-0.90;99.90
5280;DHT22;2663;53.588;10.010;2022-12-18T00:48:17;-0.90;99.90
5280;DHT22;2663;53.588;10.010;2022-12-18T00:50:43;-1.00;99.90
5280;DHT22;2663;53.588;10.010;2022-12-18T00:53:11;-1.00;99.90
5280;DHT22;2663;53.588;10.010;2022-12-18T00:55:39;-1.00;99.90
5280;DHT22;2663;53.588;10.010;2022-12-18T00:58:06;-1.00;99.90
5280;DHT22;2663;53.588;10.010;2022-12-18T01:00:33;-1.00;99.90
5280;DHT22;2663;53.588;10.010;2022-12-18T01:03:00;-1.00;99.90
5280;DHT22;2663;53.588;10.010;2022-12-18T01:05:26;-1.00;99.90
5280;DHT22;2663;53.588;10.010;2022-12-18T01:07:54;-1.10;99.90
5280;DHT22;2663;53.588;10.010;2022-12-18T01:10:21;-1.00;99.90
5280;DHT22;2663;53.588;10.010;2022-12-18T01:12:48;-1.10;99.90
5280;DHT22;2663;53.588;10.010;2022-12-18T01:15:15;-1.20;99.90
5280;DHT22;2663;53.588;10.010;2022-12-18T01:17:43;-1.20;99.90
5280;DHT22;2663;53.588;10.010;2022-12-18T01:20:12;-1.10;99.90
5280;DHT22;2663;53.588;10.010;2022-12-18T01:22:39;-1.10;99.90
5280;DHT22;2663;53.588;10.010;2022-12-18T01:25:06;-1.10;99.90
5280;DHT22;2663;53.588;10.010;2022-12-18T01:27:33;-1.20;99.90
5280;DHT22;2663;53.588;10.010;2022-12-18T01:30:00;-1.00;99.90
5280;DHT22;2663;53.588;10.010;2022-12-18T01:32:30;-0.70;99.90
5280;DHT22;2663;53.588;10.010;2022-12-18T01:34:57;-0.60;99.90
5280;DHT22;2663;53.588;10.010;2022-12-18T01:37:24;-0.70;99.90
5280;DHT22;2663;53.588;10.010;2022-12-18T01:39:52;-1.00;99.90
5280;DHT22;2663;53.588;10.010;2022-12-18T01:42:20;-0.10;99.90
5280;DHT22;2663;53.588;10.010;2022-12-18T01:47:44;-1.30;99.90
5280;DHT22;2663;53.588;10.010;2022-12-18T01:50:32;-1.40;99.90
5280;DHT22;2663;53.588;10.010;2022-12-18T01:53:11;-1.50;99.90
5280;DHT22;2663;53.588;10.010;2022-12-18T01:55:47;-1.60;99.90
5280;DHT22;2663;53.588;10.010;2022-12-18T01:58:15;-1.60;99.90
5280;DHT22;2663;53.588;10.010;2022-12-18T02:00:42;-1.60;99.90
5280;DHT22;2663;53.588;10.010;2022-12-18T02:03:10;-1.70;99.90
5280;DHT22;2663;53.588;10.010;2022-12-18T02:05:44;-1.70;99.90
5280;DHT22;2663;53.588;10.010;2022-12-18T02:08:32;-1.70;99.90
5280;DHT22;2663;53.588;10.010;2022-12-18T02:20:10;-1.60;99.90
5280;DHT22;2663;53.588;10.010;2022-12-18T02:28:23;-1.90;99.90
5280;DHT22;2663;53.588;10.010;2022-12-18T02:30:53;-1.90;99.90
5280;DHT22;2663;53.588;10.010;2022-12-18T02:33:25;-1.80;99.90
5280;DHT22;2663;53.588;10.010;2022-12-18T02:35:54;-1.80;99.90
5280;DHT22;2663;53.588;10.010;2022-12-18T02:38:23;-1.80;99.90
5280;DHT22;2663;53.588;10.010;2022-12-18T02:40:51;-1.70;99.90
5280;DHT22;2663;53.588;10.010;2022-12-18T02:43:19;-1.70;99.90
5280;DHT22;2663;53.588;10.010;2022-12-18T02:45:54;-1.50;99.90
5280;DHT22;2663;53.588;10.010;2022-12-18T02:48:25;-1.70;99.90
5280;DHT22;2663;53.588;10.010;2022-12-18T02:51:10;-1.60;99.90
5280;DHT22;2663;53.588;10.010;2022-12-18T02:53:47;-1.60;99.90
5280;DHT22;2663;53.588;10.010;2022-12-18T02:56:19;-1.60;99.90
5280;DHT22;2663;53.588;10.010;2022-12-18T02:59:21;-1.60;99.90
5280;DHT22;2663;53.588;10.010;2022-12-18T03:02:24;-1.50;99.90
5280;DHT22;2663;53.588;10.010;2022-12-18T03:07:49;-1.50;99.90
5280;DHT22;2663;53.588;10.010;2022-12-18T03:10:21;-1.50;99.90
5280;DHT22;2663;53.588;10.010;2022-12-18T03:13:02;-1.60;99.90
5280;DHT22;2663;53.588;10.010;2022-12-18T03:15:37;-1.60;99.90
5280;DHT22;2663;53.588;10.010;2022-12-18T03:18:08;-1.60;99.90
5280;DHT22;2663;53.588;10.010;2022-12-18T03:20:38;-1.60;99.90
5280;DHT22;2663;53.588;10.010;2022-12-18T03:23:10;-1.70;99.90
5280;DHT22;2663;53.588;10.010;2022-12-18T03:25:41;-1.70;99.90
5280;DHT22;2663;53.588;10.010;2022-12-18T03:28:13;-1.70;99.90
5280;DHT22;2663;53.588;10.010;2022-12-18T03:30:41;-1.80;99.90
5280;DHT22;2663;53.588;10.010;2022-12-18T03:33:32;-1.90;99.90
5280;DHT22;2663;53.588;10.010;2022-12-18T03:36:01;-2.00;99.90
5280;DHT22;2663;53.588;10.010;2022-12-18T03:38:27;-1.90;99.90
5280;DHT22;2663;53.588;10.010;2022-12-18T03:46:33;-1.80;99.90
5280;DHT22;2663;53.588;10.010;2022-12-18T03:52:11;-2.00;99.90
5280;DHT22;2663;53.588;10.010;2022-12-18T03:54:41;-2.10;99.90
5280;DHT22;2663;53.588;10.010;2022-12-18T03:57:16;-2.10;99.90
5280;DHT22;2663;53.588;10.010;2022-12-18T03:59:45;-2.10;99.90
5280;DHT22;2663;53.588;10.010;2022-12-18T04:02:15;-2.10;99.90
5280;DHT22;2663;53.588;10.010;2022-12-18T04:04:44;-2.10;99.90
5280;DHT22;2663;53.588;10.010;2022-12-18T04:07:13;-2.10;99.90
5280;DHT22;2663;53.588;10.010;2022-12-18T04:09:41;-2.10;99.90
5280;DHT22;2663;53.588;10.010;2022-12-18T04:12:08;-2.10;99.90
5280;DHT22;2663;53.588;10.010;2022-12-18T04:14:35;-2.10;99.90
5280;DHT22;2663;53.588;10.010;2022-12-18T04:17:02;-2.10;99.90
5280;DHT22;2663;53.588;10.010;2022-12-18T04:19:29;-2.10;99.90
5280;DHT22;2663;53.588;10.010;2022-12-18T04:21:56;-2.20;99.90
5280;DHT22;2663;53.588;10.010;2022-12-18T04:24:22;-2.10;99.90
5280;DHT22;2663;53.588;10.010;2022-12-18T04:26:49;-2.00;99.90
5280;DHT22;2663;53.588;10.010;2022-12-18T04:29:16;-2.10;99.90
5280;DHT22;2663;53.588;10.010;2022-12-18T04:31:42;-2.00;99.90
5280;DHT22;2663;53.588;10.010;2022-12-18T04:34:09;-2.00;99.90
5280;DHT22;2663;53.588;10.010;2022-12-18T04:36:36;-1.30;99.90
5280;DHT22;2663;53.588;10.010;2022-12-18T04:39:02;-2.10;99.90
5280;DHT22;2663;53.588;10.010;2022-12-18T04:41:29;-2.10;99.90
5280;DHT22;2663;53.588;10.010;2022-12-18T04:43:56;-2.20;99.90
5280;DHT22;2663;53.588;10.010;2022-12-18T04:46:22;-2.00;99.90
5280;DHT22;2663;53.588;10.010;2022-12-18T04:48:49;-2.10;99.90
5280;DHT22;2663;53.588;10.010;2022-12-18T04:51:15;-2.00;99.90
5280;DHT22;2663;53.588;10.010;2022-12-18T04:53:48;-2.00;99.90
5280;DHT22;2663;53.588;10.010;2022-12-18T04:56:16;-2.10;99.90
5280;DHT22;2663;53.588;10.010;2022-12-18T04:58:44;-2.10;99.90
5280;DHT22;2663;53.588;10.010;2022-12-18T05:01:12;-2.10;99.90
5280;DHT22;2663;53.588;10.010;2022-12-18T05:03:40;-2.20;99.90
5280;DHT22;2663;53.588;10.010;2022-12-18T05:06:07;-2.20;99.90
5280;DHT22;2663;53.588;10.010;2022-12-18T05:08:34;-2.20;99.90
5280;DHT22;2663;53.588;10.010;2022-12-18T05:11:09;-2.30;99.90
5280;DHT22;2663;53.588;10.010;2022-12-18T05:13:37;-2.30;99.90
5280;DHT22;2663;53.588;10.010;2022-12-18T05:16:05;-2.30;99.90
5280;DHT22;2663;53.588;10.010;2022-12-18T05:18:32;-2.30;99.90
5280;DHT22;2663;53.588;10.010;2022-12-18T05:20:59;-2.40;99.90
5280;DHT22;2663;53.588;10.010;2022-12-18T05:23:26;-2.50;99.90
5280;DHT22;2663;53.588;10.010;2022-12-18T05:25:57;-2.60;99.90
5280;DHT22;2663;53.588;10.010;2022-12-18T05:28:26;-2.70;99.90
5280;DHT22;2663;53.588;10.010;2022-12-18T05:30:58;-2.70;99.90
5280;DHT22;2663;53.588;10.010;2022-12-18T05:33:28;-2.80;99.90
5280;DHT22;2663;53.588;10.010;2022-12-18T05:35:56;-2.80;99.90
5280;DHT22;2663;53.588;10.010;2022-12-18T05:38:25;-2.70;99.90
5280;DHT22;2663;53.588;10.010;2022-12-18T05:40:52;-2.70;99.90
5280;DHT22;2663;53.588;10.010;2022-12-18T05:43:23;-2.60;99.90
5280;DHT22;2663;53.588;10.010;2022-12-18T05:45:51;-2.60;99.90
5280;DHT22;2663;53.588;10.010;2022-12-18T05:48:18;-2.60;99.90
5280;DHT22;2663;53.588;10.010;2022-12-18T05:50:46;-2.70;99.90
5280;DHT22;2663;53.588;10.010;2022-12-18T05:53:15;-2.70;99.90
5280;DHT22;2663;53.588;10.010;2022-12-18T05:55:42;-2.30;99.90
5280;DHT22;2663;53.588;10.010;2022-12-18T05:58:10;-2.70;99.90
5280;DHT22;2663;53.588;10.010;2022-12-18T06:00:39;-2.70;99.90
5280;DHT22;2663;53.588;10.010;2022-12-18T06:03:10;-2.70;99.90
5280;DHT22;2663;53.588;10.010;2022-12-18T06:05:41;-2.70;99.90
5280;DHT22;2663;53.588;10.010;2022-12-18T06:08:08;-2.70;99.90
5280;DHT22;2663;53.588;10.010;2022-12-18T06:10:35;-2.70;99.90
5280;DHT22;2663;53.588;10.010;2022-12-18T06:13:02;-2.60;99.90
5280;DHT22;2663;53.588;10.010;2022-12-18T06:15:28;-2.60;99.90
5280;DHT22;2663;53.588;10.010;2022-12-18T06:17:55;-2.70;99.90
5280;DHT22;2663;53.588;10.010;2022-12-18T06:20:22;-2.70;99.90
5280;DHT22;2663;53.588;10.010;2022-12-18T06:22:49;-2.60;99.90
5280;DHT22;2663;53.588;10.010;2022-12-18T06:25:15;-2.70;99.90
5280;DHT22;2663;53.588;10.010;2022-12-18T06:27:42;-2.80;99.90
5280;DHT22;2663;53.588;10.010;2022-12-18T06:30:10;-2.80;99.90
5280;DHT22;2663;53.588;10.010;2022-12-18T06:32:38;-2.80;99.90
5280;DHT22;2663;53.588;10.010;2022-12-18T06:35:05;-2.80;99.90
5280;DHT22;2663;53.588;10.010;2022-12-18T06:37:31;-2.80;99.90
5280;DHT22;2663;53.588;10.010;2022-12-18T06:39:58;-2.90;99.90
5280;DHT22;2663;53.588;10.010;2022-12-18T06:42:25;-2.90;99.90
5280;DHT22;2663;53.588;10.010;2022-12-18T06:44:52;-2.80;99.90
5280;DHT22;2663;53.588;10.010;2022-12-18T06:47:18;-2.80;99.90
5280;DHT22;2663;53.588;10.010;2022-12-18T06:49:45;-2.90;99.90
5280;DHT22;2663;53.588;10.010;2022-12-18T06:52:12;-2.90;99.90
5280;DHT22;2663;53.588;10.010;2022-12-18T06:54:38;-3.00;99.90
5280;DHT22;2663;53.588;10.010;2022-12-18T06:57:05;-3.00;99.90
5280;DHT22;2663;53.588;10.010;2022-12-18T06:59:32;-2.90;99.90
5280;DHT22;2663;53.588;10.010;2022-12-18T07:01:58;-2.80;99.90
5280;DHT22;2663;53.588;10.010;2022-12-18T07:04:29;-2.90;99.90
5280;DHT22;2663;53.588;10.010;2022-12-18T07:06:56;-2.80;99.90
5280;DHT22;2663;53.588;10.010;2022-12-18T07:09:24;-2.80;99.90
5280;DHT22;2663;53.588;10.010;2022-12-18T07:11:52;-2.80;99.90
5280;DHT22;2663;53.588;10.010;2022-12-18T07:14:18;-2.80;99.90
5280;DHT22;2663;53.588;10.010;2022-12-18T07:16:46;-2.80;99.90
5280;DHT22;2663;53.588;10.010;2022-12-18T07:19:13;-2.80;99.90
5280;DHT22;2663;53.588;10.010;2022-12-18T07:21:39;-2.80;99.90
5280;DHT22;2663;53.588;10.010;2022-12-18T07:24:06;-2.80;99.90
5280;DHT22;2663;53.588;10.010;2022-12-18T07:26:33;-2.80;99.90
5280;DHT22;2663;53.588;10.010;2022-12-18T07:29:00;-3.00;99.90
5280;DHT22;2663;53.588;10.010;2022-12-18T07:31:27;-3.00;99.90
5280;DHT22;2663;53.588;10.010;2022-12-18T07:33:53;-2.90;99.90
5280;DHT22;2663;53.588;10.010;2022-12-18T07:36:23;-3.00;99.90
5280;DHT22;2663;53.588;10.010;2022-12-18T07:38:51;-2.90;99.90
5280;DHT22;2663;53.588;10.010;2022-12-18T07:41:19;-2.90;99.90
5280;DHT22;2663;53.588;10.010;2022-12-18T07:43:46;-2.90;99.90
5280;DHT22;2663;53.588;10.010;2022-12-18T07:46:14;-3.00;99.90
5280;DHT22;2663;53.588;10.010;2022-12-18T07:48:42;-2.90;99.90
5280;DHT22;2663;53.588;10.010;2022-12-18T07:51:15;-2.90;99.90
5280;DHT22;2663;53.588;10.010;2022-12-18T07:53:42;-2.80;99.90
5280;DHT22;2663;53.588;10.010;2022-12-18T07:56:11;-2.80;99.90
5280;DHT22;2663;53.588;10.010;2022-12-18T07:58:55;-2.80;99.90
5280;DHT22;2663;53.588;10.010;2022-12-18T08:01:22;-2.80;99.90
5280;DHT22;2663;53.588;10.010;2022-12-18T08:03:50;-2.80;99.90
5280;DHT22;2663;53.588;10.010;2022-12-18T08:06:18;-2.80;99.90
5280;DHT22;2663;53.588;10.010;2022-12-18T08:08:48;-2.70;99.90
5280;DHT22;2663;53.588;10.010;2022-12-18T08:11:15;-2.60;99.90
5280;DHT22;2663;53.588;10.010;2022-12-18T08:13:42;-2.60;99.90
5280;DHT22;2663;53.588;10.010;2022-12-18T08:16:08;-2.60;99.90
5280;DHT22;2663;53.588;10.010;2022-12-18T08:18:37;-2.60;99.90
5280;DHT22;2663;53.588;10.010;2022-12-18T08:21:21;-2.60;99.90
5280;DHT22;2663;53.588;10.010;2022-12-18T08:23:50;-2.60;99.90
5280;DHT22;2663;53.588;10.010;2022-12-18T08:26:19;-2.60;99.90
5280;DHT22;2663;53.588;10.010;2022-12-18T08:28:47;-2.50;99.90
5280;DHT22;2663;53.588;10.010;2022-12-18T08:31:15;-2.60;99.90
5280;DHT22;2663;53.588;10.010;2022-12-18T08:33:42;-2.60;99.90
5280;DHT22;2663;53.588;10.010;2022-12-18T08:36:10;-2.50;99.90
5280;DHT22;2663;53.588;10.010;2022-12-18T08:38:37;-2.40;99.90
5280;DHT22;2663;53.588;10.010;2022-12-18T08:41:09;-2.40;99.90
5280;DHT22;2663;53.588;10.010;2022-12-18T08:43:37;-2.50;99.90
5280;DHT22;2663;53.588;10.010;2022-12-18T08:46:24;-2.50;99.90
5280;DHT22;2663;53.588;10.010;2022-12-18T08:48:52;-2.50;99.90
5280;DHT22;2663;53.588;10.010;2022-12-18T08:51:20;-2.40;99.90
5280;DHT22;2663;53.588;10.010;2022-12-18T08:53:47;-2.30;99.90
5280;DHT22;2663;53.588;10.010;2022-12-18T08:56:14;-2.20;99.90
5280;DHT22;2663;53.588;10.010;2022-12-18T08:58:41;-2.10;99.90
5280;DHT22;2663;53.588;10.010;2022-12-18T09:01:10;-2.10;99.90
5280;DHT22;2663;53.588;10.010;2022-12-18T09:03:37;-2.10;99.90
5280;DHT22;2663;53.588;10.010;2022-12-18T09:06:06;-2.00;99.90
5280;DHT22;2663;53.588;10.010;2022-12-18T09:08:32;-2.20;99.90
5280;DHT22;2663;53.588;10.010;2022-12-18T09:11:00;-2.20;99.90
5280;DHT22;2663;53.588;10.010;2022-12-18T09:13:26;-2.20;99.90
5280;DHT22;2663;53.588;10.010;2022-12-18T09:15:54;-2.10;99.90
5280;DHT22;2663;53.588;10.010;2022-12-18T09:18:23;-2.10;99.90
5280;DHT22;2663;53.588;10.010;2022-12-18T09:20:50;-2.10;99.90
5280;DHT22;2663;53.588;10.010;2022-12-18T09:23:19;-2.10;99.90
5280;DHT22;2663;53.588;10.010;2022-12-18T09:25:46;-2.00;99.90
5280;DHT22;2663;53.588;10.010;2022-12-18T09:28:16;-2.00;99.90
5280;DHT22;2663;53.588;10.010;2022-12-18T09:30:46;-2.00;99.90
5280;DHT22;2663;53.588;10.010;2022-12-18T09:33:13;-1.90;99.90
5280;DHT22;2663;53.588;10.010;2022-12-18T09:35:41;-1.80;99.90
5280;DHT22;2663;53.588;10.010;2022-12-18T09:38:11;-1.90;99.90
5280;DHT22;2663;53.588;10.010;2022-12-18T09:40:49;-1.90;99.90
5280;DHT22;2663;53.588;10.010;2022-12-18T09:45:50;-1.80;99.90
5280;DHT22;2663;53.588;10.010;2022-12-18T09:48:23;-1.70;99.90
5280;DHT22;2663;53.588;10.010;2022-12-18T09:50:57;-1.60;99.90
5280;DHT22;2663;53.588;10.010;2022-12-18T09:53:29;-1.50;99.90
5280;DHT22;2663;53.588;10.010;2022-12-18T09:55:57;-1.50;99.90
5280;DHT22;2663;53.588;10.010;2022-12-18T10:00:58;-1.40;99.90
5280;DHT22;2663;53.588;10.010;2022-12-18T10:03:24;-1.40;99.90
5280;DHT22;2663;53.588;10.010;2022-12-18T10:06:11;-1.40;99.90
5280;DHT22;2663;53.588;10.010;2022-12-18T10:08:49;-1.30;99.90
5280;DHT22;2663;53.588;10.010;2022-12-18T10:14:54;-1.20;99.90
5280;DHT22;2663;53.588;10.010;2022-12-18T10:22:37;-1.00;99.90
5280;DHT22;2663;53.588;10.010;2022-12-18T10:25:10;-1.00;99.90
5280;DHT22;2663;53.588;10.010;2022-12-18T10:27:41;-1.00;99.90
5280;DHT22;2663;53.588;10.010;2022-12-18T10:30:20;-1.10;99.90
5280;DHT22;2663;53.588;10.010;2022-12-18T10:32:47;-1.00;99.90
5280;DHT22;2663;53.588;10.010;2022-12-18T10:35:25;-1.00;99.90
5280;DHT22;2663;53.588;10.010;2022-12-18T10:46:00;-0.80;99.90
5280;DHT22;2663;53.588;10.010;2022-12-18T10:48:27;-0.70;99.90
5280;DHT22;2663;53.588;10.010;2022-12-18T10:50:54;-0.60;99.90
5280;DHT22;2663;53.588;10.010;2022-12-18T10:53:40;-0.50;99.90
5280;DHT22;2663;53.588;10.010;2022-12-18T10:56:08;-0.50;99.90
5280;DHT22;2663;53.588;10.010;2022-12-18T10:58:37;-0.50;99.90
5280;DHT22;2663;53.588;10.010;2022-12-18T11:01:13;-0.40;99.90
5280;DHT22;2663;53.588;10.010;2022-12-18T11:06:18;-0.30;99.90
5280;DHT22;2663;53.588;10.010;2022-12-18T11:08:59;-0.20;99.90
5280;DHT22;2663;53.588;10.010;2022-12-18T11:11:26;-0.30;99.90
5280;DHT22;2663;53.588;10.010;2022-12-18T11:14:15;-0.30;99.90
5280;DHT22;2663;53.588;10.010;2022-12-18T11:16:46;-0.30;99.90
5280;DHT22;2663;53.588;10.010;2022-12-18T11:19:38;-0.40;99.90
5280;DHT22;2663;53.588;10.010;2022-12-18T11:22:32;-0.40;99.90
5280;DHT22;2663;53.588;10.010;2022-12-18T11:25:06;-0.40;99.90
5280;DHT22;2663;53.588;10.010;2022-12-18T11:28:04;-0.40;99.90
5280;DHT22;2663;53.588;10.010;2022-12-18T11:30:34;-0.30;99.90
5280;DHT22;2663;53.588;10.010;2022-12-18T11:33:10;-0.30;99.90
5280;DHT22;2663;53.588;10.010;2022-12-18T11:35:55;-0.30;99.90
5280;DHT22;2663;53.588;10.010;2022-12-18T11:43:52;-0.40;99.90
5280;DHT22;2663;53.588;10.010;2022-12-18T11:46:32;-0.30;99.90
5280;DHT22;2663;53.588;10.010;2022-12-18T11:49:42;-0.20;99.90
5280;DHT22;2663;53.588;10.010;2022-12-18T11:52:28;-0.20;99.90
5280;DHT22;2663;53.588;10.010;2022-12-18T11:55:00;-0.20;99.90
5280;DHT22;2663;53.588;10.010;2022-12-18T11:58:43;-0.10;99.90
5280;DHT22;2663;53.588;10.010;2022-12-18T12:00:53;0.00;99.90
5280;DHT22;2663;53.588;10.010;2022-12-18T12:12:01;0.10;99.90
5280;DHT22;2663;53.588;10.010;2022-12-18T12:21:04;0.10;99.90
5280;DHT22;2663;53.588;10.010;2022-12-18T12:26:08;0.20;99.90
5280;DHT22;2663;53.588;10.010;2022-12-18T12:28:57;0.20;99.90
5280;DHT22;2663;53.588;10.010;2022-12-18T12:31:50;0.20;99.90
5280;DHT22;2663;53.588;10.010;2022-12-18T12:37:53;0.20;99.90
5280;DHT22;2663;53.588;10.010;2022-12-18T12:40:27;0.30;99.90
5280;DHT22;2663;53.588;10.010;2022-12-18T12:43:33;0.50;99.90
5280;DHT22;2663;53.588;10.010;2022-12-18T12:46:06;0.40;99.90
5280;DHT22;2663;53.588;10.010;2022-12-18T12:53:44;0.60;99.90
5280;DHT22;2663;53.588;10.010;2022-12-18T12:56:15;0.60;99.90
5280;DHT22;2663;53.588;10.010;2022-12-18T12:59:02;0.70;99.90
5280;DHT22;2663;53.588;10.010;2022-12-18T13:01:49;0.90;99.90
5280;DHT22;2663;53.588;10.010;2022-12-18T13:07:15;0.70;99.90
5280;DHT22;2663;53.588;10.010;2022-12-18T13:10:13;0.60;99.90
5280;DHT22;2663;53.588;10.010;2022-12-18T13:13:15;0.50;99.90
5280;DHT22;2663;53.588;10.010;2022-12-18T13:16:07;0.60;99.90
5280;DHT22;2663;53.588;10.010;2022-12-18T13:18:35;0.50;99.90
5280;DHT22;2663;53.588;10.010;2022-12-18T13:21:14;0.50;99.90
5280;DHT22;2663;53.588;10.010;2022-12-18T13:23:44;0.50;99.90
5280;DHT22;2663;53.588;10.010;2022-12-18T13:28:54;0.60;99.90
5280;DHT22;2663;53.588;10.010;2022-12-18T13:34:23;0.40;99.90
5280;DHT22;2663;53.588;10.010;2022-12-18T13:36:54;0.30;99.90
5280;DHT22;2663;53.588;10.010;2022-12-18T13:39:24;0.30;99.90
5280;DHT22;2663;53.588;10.010;2022-12-18T13:44:37;0.30;99.90
5280;DHT22;2663;53.588;10.010;2022-12-18T13:47:31;0.10;99.90
5280;DHT22;2663;53.588;10.010;2022-12-18T13:49:59;0.00;99.90
5280;DHT22;2663;53.588;10.010;2022-12-18T13:52:28;0.20;99.90
5280;DHT22;2663;53.588;10.010;2022-12-18T13:55:02;0.10;99.90
5280;DHT22;2663;53.588;10.010;2022-12-18T13:57:34;0.10;99.90
5280;DHT22;2663;53.588;10.010;2022-12-18T14:02:52;-0.10;99.90
5280;DHT22;2663;53.588;10.010;2022-12-18T14:07:52;-0.30;99.90
5280;DHT22;2663;53.588;10.010;2022-12-18T14:10:21;-0.20;99.90
5280;DHT22;2663;53.588;10.010;2022-12-18T14:13:09;0.10;99.90
5280;DHT22;2663;53.588;10.010;2022-12-18T14:15:46;0.00;99.90
5280;DHT22;2663;53.588;10.010;2022-12-18T14:18:26;0.00;99.90
5280;DHT22;2663;53.588;10.010;2022-12-18T14:20:59;0.00;99.90
5280;DHT22;2663;53.588;10.010;2022-12-18T14:23:34;-0.10;99.90
5280;DHT22;2663;53.588;10.010;2022-12-18T14:26:03;-0.10;99.90
5280;DHT22;2663;53.588;10.010;2022-12-18T14:28:45;-0.10;99.90
5280;DHT22;2663;53.588;10.010;2022-12-18T14:31:22;-0.10;99.90
5280;DHT22;2663;53.588;10.010;2022-12-18T14:33:49;-0.20;99.90
5280;DHT22;2663;53.588;10.010;2022-12-18T14:36:22;-0.20;99.90
5280;DHT22;2663;53.588;10.010;2022-12-18T14:38:53;-0.20;99.90
5280;DHT22;2663;53.588;10.010;2022-12-18T14:41:21;-0.30;99.90
5280;DHT22;2663;53.588;10.010;2022-12-18T14:43:50;-0.20;99.90
5280;DHT22;2663;53.588;10.010;2022-12-18T14:46:33;-0.30;99.90
5280;DHT22;2663;53.588;10.010;2022-12-18T14:49:36;-0.30;99.90
5280;DHT22;2663;53.588;10.010;2022-12-18T14:52:00;-0.30;99.90
5280;DHT22;2663;53.588;10.010;2022-12-18T14:54:28;-0.30;99.90
5280;DHT22;2663;53.588;10.010;2022-12-18T14:57:01;-0.30;99.90
5280;DHT22;2663;53.588;10.010;2022-12-18T14:59:30;-0.30;99.90
5280;DHT22;2663;53.588;10.010;2022-12-18T15:04:45;-0.30;99.90
5280;DHT22;2663;53.588;10.010;2022-12-18T15:07:20;-0.50;99.90
5280;DHT22;2663;53.588;10.010;2022-12-18T15:12:39;-0.50;99.90
5280;DHT22;2663;53.588;10.010;2022-12-18T15:23:30;-0.60;99.90
5280;DHT22;2663;53.588;10.010;2022-12-18T15:26:06;-0.60;99.90
5280;DHT22;2663;53.588;10.010;2022-12-18T15:28:54;-0.60;99.90
5280;DHT22;2663;53.588;10.010;2022-12-18T15:31:24;-0.50;99.90
5280;DHT22;2663;53.588;10.010;2022-12-18T15:36:23;-0.50;99.90
5280;DHT22;2663;53.588;10.010;2022-12-18T15:38:54;-0.50;99.90
5280;DHT22;2663;53.588;10.010;2022-12-18T15:41:32;-0.60;99.90
5280;DHT22;2663;53.588;10.010;2022-12-18T15:44:02;-0.50;99.90
5280;DHT22;2663;53.588;10.010;2022-12-18T15:46:29;-0.50;99.90
5280;DHT22;2663;53.588;10.010;2022-12-18T15:48:58;-0.50;99.90
5280;DHT22;2663;53.588;10.010;2022-12-18T15:51:51;-0.40;99.90
5280;DHT22;2663;53.588;10.010;2022-12-18T15:54:18;-0.30;99.90
5280;DHT22;2663;53.588;10.010;2022-12-18T15:57:11;-0.30;99.90
5280;DHT22;2663;53.588;10.010;2022-12-18T15:59:54;-0.40;99.90
5280;DHT22;2663;53.588;10.010;2022-12-18T16:02:23;-0.40;99.90
5280;DHT22;2663;53.588;10.010;2022-12-18T16:04:51;-0.30;99.90
5280;DHT22;2663;53.588;10.010;2022-12-18T16:07:18;-0.40;99.90
5280;DHT22;2663;53.588;10.010;2022-12-18T16:09:51;-0.30;99.90
5280;DHT22;2663;53.588;10.010;2022-12-18T16:12:20;-0.40;99.90
5280;DHT22;2663;53.588;10.010;2022-12-18T16:14:48;-0.40;99.90
5280;DHT22;2663;53.588;10.010;2022-12-18T16:17:15;-0.40;99.90
5280;DHT22;2663;53.588;10.010;2022-12-18T16:19:43;-0.40;99.90
5280;DHT22;2663;53.588;10.010;2022-12-18T16:22:27;-0.40;99.90
5280;DHT22;2663;53.588;10.010;2022-12-18T16:24:55;-0.40;99.90
5280;DHT22;2663;53.588;10.010;2022-12-18T16:27:23;-0.40;99.90
5280;DHT22;2663;53.588;10.010;2022-12-18T16:29:50;-0.40;99.90
5280;DHT22;2663;53.588;10.010;2022-12-18T16:32:20;-0.40;99.90
5280;DHT22;2663;53.588;10.010;2022-12-18T16:34:47;-0.50;99.90
5280;DHT22;2663;53.588;10.010;2022-12-18T16:37:15;-0.50;99.90
5280;DHT22;2663;53.588;10.010;2022-12-18T16:39:42;-0.50;99.90
5280;DHT22;2663;53.588;10.010;2022-12-18T16:42:17;-0.40;99.90
5280;DHT22;2663;53.588;10.010;2022-12-18T16:44:47;-1.10;99.90
5280;DHT22;2663;53.588;10.010;2022-12-18T16:47:15;-0.50;99.90
5280;DHT22;2663;53.588;10.010;2022-12-18T16:49:42;-0.50;99.90
5280;DHT22;2663;53.588;10.010;2022-12-18T16:52:11;-0.50;99.90
5280;DHT22;2663;53.588;10.010;2022-12-18T16:54:38;-0.40;99.90
5280;DHT22;2663;53.588;10.010;2022-12-18T16:57:05;-0.40;99.90
5280;DHT22;2663;53.588;10.010;2022-12-18T16:59:31;-0.50;99.90
5280;DHT22;2663;53.588;10.010;2022-12-18T17:01:59;-0.60;99.90
5280;DHT22;2663;53.588;10.010;2022-12-18T17:04:26;-0.40;99.90
5280;DHT22;2663;53.588;10.010;2022-12-18T17:06:53;-0.40;99.90
5280;DHT22;2663;53.588;10.010;2022-12-18T17:09:20;-0.30;99.90
5280;DHT22;2663;53.588;10.010;2022-12-18T17:11:53;-0.40;99.90
5280;DHT22;2663;53.588;10.010;2022-12-18T17:14:22;-0.30;99.90
5280;DHT22;2663;53.588;10.010;2022-12-18T17:16:49;-0.40;99.90
5280;DHT22;2663;53.588;10.010;2022-12-18T17:19:36;-0.50;99.90
5280;DHT22;2663;53.588;10.010;2022-12-18T17:22:03;-0.40;99.90
5280;DHT22;2663;53.588;10.010;2022-12-18T17:24:30;-0.30;99.90
5280;DHT22;2663;53.588;10.010;2022-12-18T17:27:01;-0.30;99.90
5280;DHT22;2663;53.588;10.010;2022-12-18T17:29:29;-0.20;99.90
5280;DHT22;2663;53.588;10.010;2022-12-18T17:31:55;-0.30;99.90
5280;DHT22;2663;53.588;10.010;2022-12-18T17:34:25;-0.30;99.90
5280;DHT22;2663;53.588;10.010;2022-12-18T17:36:51;-0.40;99.90
5280;DHT22;2663;53.588;10.010;2022-12-18T17:39:19;-0.40;99.90
5280;DHT22;2663;53.588;10.010;2022-12-18T17:41:46;-0.30;99.90
5280;DHT22;2663;53.588;10.010;2022-12-18T17:44:14;-0.20;99.90
5280;DHT22;2663;53.588;10.010;2022-12-18T17:46:41;-0.20;99.90
5280;DHT22;2663;53.588;10.010;2022-12-18T17:49:09;-0.20;99.90
5280;DHT22;2663;53.588;10.010;2022-12-18T17:51:35;-0.20;99.90
5280;DHT22;2663;53.588;10.010;2022-12-18T17:54:02;-0.20;99.90
5280;DHT22;2663;53.588;10.010;2022-12-18T17:56:30;-0.20;99.90
5280;DHT22;2663;53.588;10.010;2022-12-18T17:58:58;-0.20;99.90
5280;DHT22;2663;53.588;10.010;2022-12-18T18:01:25;-0.30;99.90
5280;DHT22;2663;53.588;10.010;2022-12-18T18:03:52;-0.30;99.90
5280;DHT22;2663;53.588;10.010;2022-12-18T18:06:22;-0.30;99.90
5280;DHT22;2663;53.588;10.010;2022-12-18T18:08:49;-0.30;99.90
5280;DHT22;2663;53.588;10.010;2022-12-18T18:11:18;-0.40;99.90
5280;DHT22;2663;53.588;10.010;2022-12-18T18:14:10;-0.30;99.90